Terminal Aerodrome Forecast
Issued by NWS

Home | Current Version | Previous Version | Graphics & Text | Print | Product List | Glossary On
Versions: 1 2 3 4 5 6 7 8 9 10 11 12 13 14 15 16
000
FTUS43 KGRB 181100 RRA
TAFATW
TAF
KATW 181146Z 1812/1912 27012G20KT P6SM BKN100
     FM181600 27015G25KT P6SM SCT025 BKN035
     FM182300 25009KT P6SM SCT035 SCT060
     FM190700 20005KT P6SM SCT050 BKN100=

USA.gov is the U.S. government's official web portal to all federal, state and local government web resources and services.